EDDMLIPA

Guest
Details From EDDM - Muenchen Franz-josef Strauss
To LIPA - Aviano Ab
Flight Number -
Tags Generated
Created
Modified
Stats Distance 143 nm / 265 km
Max Altitude 0 ft / 0 m
Waypoints 2
Social Downloads 0
Likes 0
Share VATSIM

Download

Looking for another format? Having issues loading an existing format? Contact us
Advertisement - Login to hide

Notes

Generated

Route

EDDM LIPA

ID Type Via Altitude Latitude Longitude Leg Dist Tot Dist Heading (true) Name
O EDDM APT - 0 ft / 0 m 48.34069˚ 11.75108˚ - 0 nm - -
O LIPA APT - 0 ft / 0 m 46.02333˚ 12.58389˚ 143 nm 143 nm 166° / 167° -

Altitude Profile

Advertisement - Login to hide

EDDM

Details ICAO EDDM (MUC)
Name Muenchen Franz-Josef Strauss
Region Germany - Civil
Timezone Europe/Berlin (UTC+1.0)
Stats Elevation 1,487 ft / 453 m (AMSL)
Location 48.353786° 11.786117°
Runways 2
Magnetic Variation 3.161° E

METAR

EDDM 151720Z 23007KT 9999 FEW035 BKN055 03/M02 Q1000 NOSIG

Decode

TAF

TAF EDDM 151700Z 1518/1624 24012KT 9999 BKN045 BECMG 1518/1520 24004KT TEMPO 1606/1619 3000 -SN BKN012 PROB30 TEMPO 1609/1613 32015G25KT 1200 SHSN VV004 BKN010CB BECMG 1616/1618 31008KT PROB30 TEMPO 1617/1619 32015G25KT 1000 SHSN VV004 BKN010CB BECMG 1619/1621 OVC008 BECMG 1622/1624 23006KT

Decode

Departure Runways

ID Width Length Bearing (true) Bearing (mag) Surface Threshold Offset Overrun Length
08L 197 ft / 60 m 13,086 ft / 3,989 m 83.38° 80.22° Concrete 0 ft / 0 m 0 ft / 0 m
08R 197 ft / 60 m 13,086 ft / 3,989 m 83.37° 80.21° Concrete 0 ft / 0 m 0 ft / 0 m
26L 197 ft / 60 m 13,086 ft / 3,989 m 263.41° 260.25° Concrete 0 ft / 0 m 0 ft / 0 m
26R 197 ft / 60 m 13,086 ft / 3,989 m 263.42° 260.26° Concrete 0 ft / 0 m 0 ft / 0 m

LIPA

Details ICAO LIPA (AVB)
Name AVIANO AB
Region Italy
Timezone Europe/Rome (UTC+1.0)
Stats Elevation 410 ft / 125 m (AMSL)
Location 46.031111° 12.596389°
Runways 1
Magnetic Variation 3.255° E

METAR

LIPA 151655Z 05005KT 9999 FEW055 BKN090 08/06 Q0996 RMK BKN VIS MIN 9999 WIND THR05 /////KT WIND THR23 /////KT A2944 BLU

Decode

TAF

Not found

Destination Runways

ID Width Length Bearing (true) Bearing (mag) Surface Threshold Offset Overrun Length
05 144 ft / 44 m 8,505 ft / 2,592 m 48.12° 44.86° Asphalt 0 ft / 0 m 845 ft / 258 m
23 144 ft / 44 m 8,505 ft / 2,592 m 228.14° 224.88° Asphalt 0 ft / 0 m 919 ft / 280 m

Approach Navaids

Runway Type Ident Frequency Range Bearing (true) Bearing (mag) Slope Elevation
05 Localiser IAVI 109.50 MHz 18 nm / 33 km 48.12° 44.87° - 410 ft / 125 m (AMSL)

Popular Alternatives